Observation data for Spur on 05/13/2018      Previous  Date  Next       Current Mesonet Observations  Soil Data  Daily Summary Page  Observations in Plain Language
KSP1 130500Z 15005KT 27/12 A299 RMK A01 T02720121  RH  041%=      5-min Rain = 0
KSP1 130505Z 15004KT 27/12 A299 RMK A01 T02710122  RH  041%=      5-min Rain = 0
KSP1 130510Z 15004KT 27/12 A299 RMK A01 T02680123  RH  042%=      5-min Rain = 0
KSP1 130515Z 14004KT 27/12 A299 RMK A01 T02670123  RH  042%=      5-min Rain = 0
KSP1 130520Z 14004KT 27/12 A299 RMK A01 T02660123  RH  043%=      5-min Rain = 0
KSP1 130525Z 14003KT 26/12 A299 RMK A01 T02640123  RH  043%=      5-min Rain = 0
KSP1 130530Z 13002KT 26/12 A299 RMK A01 T02640124  RH  043%=      5-min Rain = 0
KSP1 130535Z 13003KT 26/12 A299 RMK A01 T02640124  RH  043%=      5-min Rain = 0
KSP1 130540Z 13002KT 26/12 A299 RMK A01 T02640124  RH  044%=      5-min Rain = 0
KSP1 130545Z 14002KT 26/13 A299 RMK A01 T02630125  RH  044%=      5-min Rain = 0
KSP1 130550Z 15002KT 26/13 A2991 RMK A01 T02620125  RH  044%=      5-min Rain = 0
KSP1 130555Z 15002KT 26/13 A2991 RMK A01 T02610126  RH  045%=      5-min Rain = 0
KSP1 130600Z 14001KT 26/13 A2991 RMK A01 T02610126  RH  045%=      5-min Rain = 0
KSP1 130605Z 12000KT 26/13 A2991 RMK A01 T02610126  RH  045%=      5-min Rain = 0
KSP1 130610Z 28001KT 26/13 A2992 RMK A01 T02580126  RH  045%=      5-min Rain = 0
KSP1 130615Z 26002KT 26/13 A2992 RMK A01 T02570128  RH  047%=      5-min Rain = 0
KSP1 130620Z 19002KT 26/13 A2991 RMK A01 T02550128  RH  047%=      5-min Rain = 0
KSP1 130625Z 16003KT 25/13 A2991 RMK A01 T02540129  RH  048%=      5-min Rain = 0
KSP1 130630Z 16003KT 25/13 A2991 RMK A01 T02530129  RH  048%=      5-min Rain = 0
KSP1 130635Z 17004KT 25/13 A2991 RMK A01 T02520131  RH  049%=      5-min Rain = 0
KSP1 130640Z 19004KT 25/13 A2991 RMK A01 T02500130  RH  049%=      5-min Rain = 0
KSP1 130645Z 18005KT 25/13 A2991 RMK A01 T02450129  RH  050%=      5-min Rain = 0
KSP1 130650Z 18005KT 24/13 A2991 RMK A01 T02430133  RH  052%=      5-min Rain = 0
KSP1 130655Z 17005KT 25/13 A2991 RMK A01 T02460134  RH  052%=      5-min Rain = 0
KSP1 130700Z 18005KT 24/13 A2991 RMK A01 T02440133  RH  052%=      5-min Rain = 0
KSP1 130705Z 19005KT 24/13 A2991 RMK A01 T02410134  RH  053%=      5-min Rain = 0
KSP1 130710Z 19005KT 24/14 A2991 RMK A01 T02410136  RH  054%=      5-min Rain = 0
KSP1 130715Z 17005KT 24/14 A2991 RMK A01 T02420136  RH  054%=      5-min Rain = 0
KSP1 130720Z 15005KT 24/13 A2991 RMK A01 T02390134  RH  054%=      5-min Rain = 0
KSP1 130725Z 16005KT 24/14 A2991 RMK A01 T02360136  RH  056%=      5-min Rain = 0
KSP1 130730Z 16005KT 24/14 A2991 RMK A01 T02370137  RH  056%=      5-min Rain = 0
KSP1 130735Z 17005KT 24/14 A299 RMK A01 T02380138  RH  056%=      5-min Rain = 0
KSP1 130740Z 17005KT 24/14 A299 RMK A01 T02380138  RH  055%=      5-min Rain = 0
KSP1 130745Z 18006KT 24/14 A299 RMK A01 T02380138  RH  056%=      5-min Rain = 0
KSP1 130750Z 18007KT 24/14 A299 RMK A01 T02400140  RH  056%=      5-min Rain = 0
KSP1 130755Z 18007KT 25/14 A299 RMK A01 T02470141  RH  054%=      5-min Rain = 0
KSP1 130800Z 18007KT 25/14 A299 RMK A01 T02490141  RH  053%=      5-min Rain = 0
KSP1 130805Z 18006KT 25/14 A299 RMK A01 T02490142  RH  054%=      5-min Rain = 0
KSP1 130810Z 17007KT 25/14 A299 RMK A01 T02480142  RH  054%=      5-min Rain = 0
KSP1 130815Z 18007KT 25/14 A299 RMK A01 T02470143  RH  055%=      5-min Rain = 0
KSP1 130820Z 18006KT 25/14 A299 RMK A01 T02470144  RH  055%=      5-min Rain = 0
KSP1 130825Z 18006KT 25/15 A299 RMK A01 T02460145  RH  056%=      5-min Rain = 0
KSP1 130830Z 18006KT 25/15 A299 RMK A01 T02450145  RH  056%=      5-min Rain = 0
KSP1 130835Z 18006KT 25/15 A299 RMK A01 T02450146  RH  056%=      5-min Rain = 0
KSP1 130840Z 18007KT 25/15 A299 RMK A01 T02460146  RH  056%=      5-min Rain = 0
KSP1 130845Z 18006KT 24/15 A299 RMK A01 T02440146  RH  057%=      5-min Rain = 0
KSP1 130850Z 18006KT 24/15 A299 RMK A01 T02430147  RH  057%=      5-min Rain = 0
KSP1 130855Z 18006KT 24/15 A299 RMK A01 T02430147  RH  057%=      5-min Rain = 0
KSP1 130900Z 18006KT 24/15 A299 RMK A01 T02420147  RH  058%=      5-min Rain = 0
KSP1 130905Z 18006KT 24/15 A299 RMK A01 T02410147  RH  058%=      5-min Rain = 0
KSP1 130910Z 18005KT 24/15 A299 RMK A01 T02400148  RH  059%=      5-min Rain = 0
KSP1 130915Z 18004KT 24/15 A299 RMK A01 T02390148  RH  059%=      5-min Rain = 0
KSP1 130920Z 19004KT 24/15 A2991 RMK A01 T02380148  RH  060%=      5-min Rain = 0
KSP1 130925Z 20004KT 24/15 A2991 RMK A01 T02370148  RH  060%=      5-min Rain = 0
KSP1 130930Z 20004KT 24/15 A2991 RMK A01 T02350148  RH  061%=      5-min Rain = 0
KSP1 130935Z 20004KT 23/15 A2991 RMK A01 T02340148  RH  061%=      5-min Rain = 0
KSP1 130940Z 19003KT 23/15 A2991 RMK A01 T02320148  RH  062%=      5-min Rain = 0
KSP1 130945Z 21002KT 23/15 A2992 RMK A01 T02310148  RH  062%=      5-min Rain = 0
KSP1 130950Z 21003KT 23/15 A2992 RMK A01 T02310148  RH  062%=      5-min Rain = 0
KSP1 130955Z 21004KT 23/15 A2992 RMK A01 T02320148  RH  062%=      5-min Rain = 0
KSP1 131000Z 21004KT 23/15 A2992 RMK A01 T02310147  RH  062%=      5-min Rain = 0
KSP1 131005Z 20004KT 23/15 A2992 RMK A01 T02290147  RH  062%=      5-min Rain = 0
KSP1 131010Z 20004KT 23/15 A2992 RMK A01 T02280147  RH  063%=      5-min Rain = 0
KSP1 131015Z 19004KT 23/15 A2992 RMK A01 T02270147  RH  063%=      5-min Rain = 0
KSP1 131020Z 18004KT 23/15 A2992 RMK A01 T02260147  RH  064%=      5-min Rain = 0
KSP1 131025Z 18004KT 23/15 A2993 RMK A01 T02250148  RH  064%=      5-min Rain = 0
KSP1 131030Z 18004KT 23/15 A2993 RMK A01 T02250148  RH  064%=      5-min Rain = 0
KSP1 131035Z 18004KT 23/15 A2993 RMK A01 T02250148  RH  065%=      5-min Rain = 0
KSP1 131040Z 18004KT 23/15 A2993 RMK A01 T02250148  RH  064%=      5-min Rain = 0
KSP1 131045Z 18005KT 23/15 A2993 RMK A01 T02260148  RH  064%=      5-min Rain = 0
KSP1 131050Z 19006KT 23/15 A2993 RMK A01 T02260148  RH  064%=      5-min Rain = 0
KSP1 131055Z 19007KT 23/15 A2993 RMK A01 T02260148  RH  064%=      5-min Rain = 0
KSP1 131100Z 19007KT 23/15 A2993 RMK A01 T02270148  RH  064%=      5-min Rain = 0
KSP1 131105Z 19006KT 23/15 A2993 RMK A01 T02270147  RH  063%=      5-min Rain = 0
KSP1 131110Z 18006KT 23/15 A2993 RMK A01 T02270147  RH  063%=      5-min Rain = 0
KSP1 131115Z 18006KT 23/15 A2993 RMK A01 T02250147  RH  064%=      5-min Rain = 0
KSP1 131120Z 18006KT 23/15 A2993 RMK A01 T02250147  RH  064%=      5-min Rain = 0
KSP1 131125Z 18006KT 22/15 A2993 RMK A01 T02240147  RH  065%=      5-min Rain = 0
KSP1 131130Z 18005KT 22/15 A2993 RMK A01 T02230147  RH  065%=      5-min Rain = 0
KSP1 131135Z 18006KT 22/15 A2993 RMK A01 T02220148  RH  065%=      5-min Rain = 0
KSP1 131140Z 17006KT 22/15 A2993 RMK A01 T02220148  RH  065%=      5-min Rain = 0
KSP1 131145Z 17006KT 22/15 A2994 RMK A01 T02220148  RH  066%=      5-min Rain = 0
KSP1 131150Z 18005KT 22/15 A2994 RMK A01 T02210148  RH  066%=      5-min Rain = 0
KSP1 131155Z 18005KT 22/15 A2994 RMK A01 T02210148  RH  066%=      5-min Rain = 0
KSP1 131200Z 18005KT 22/15 A2995 RMK A01 T02210148  RH  066%=      5-min Rain = 0
KSP1 131205Z 18005KT 22/15 A2995 RMK A01 T02200149  RH  067%=      5-min Rain = 0
KSP1 131210Z 18005KT 22/15 A2995 RMK A01 T02200149  RH  067%=      5-min Rain = 0
KSP1 131215Z 18006KT 22/15 A2995 RMK A01 T02210150  RH  067%=      5-min Rain = 0
KSP1 131220Z 18006KT 22/15 A2995 RMK A01 T02220150  RH  067%=      5-min Rain = 0
KSP1 131225Z 19006KT 22/15 A2995 RMK A01 T02230151  RH  066%=      5-min Rain = 0
KSP1 131230Z 19007KT 23/15 A2995 RMK A01 T02250151  RH  066%=      5-min Rain = 0
KSP1 131235Z 18006KT 23/15 A2995 RMK A01 T02260152  RH  066%=      5-min Rain = 0
KSP1 131240Z 17005KT 23/15 A2996 RMK A01 T02280153  RH  065%=      5-min Rain = 0
KSP1 131245Z 16005KT 23/15 A2996 RMK A01 T02280153  RH  065%=      5-min Rain = 0
KSP1 131250Z 17005KT 23/15 A2996 RMK A01 T02290153  RH  065%=      5-min Rain = 0
KSP1 131255Z 17005KT 23/15 A2996 RMK A01 T02290154  RH  065%=      5-min Rain = 0
KSP1 131300Z 17006KT 23/16 A2996 RMK A01 T02310155  RH  065%=      5-min Rain = 0
KSP1 131305Z 18007KT 23/16 A2996 RMK A01 T02330155  RH  065%=      5-min Rain = 0
KSP1 131310Z 18008KT 23/16 A2996 RMK A01 T02330156  RH  065%=      5-min Rain = 0
KSP1 131315Z 18009KT 23/16 A2996 RMK A01 T02320157  RH  066%=      5-min Rain = 0
KSP1 131320Z 19010G15KT 23/16 A2996 RMK A01 T02310157  RH  066%=      5-min Rain = 0
KSP1 131325Z 19009KT 23/16 A2996 RMK A01 T02310158  RH  066%=      5-min Rain = 0
KSP1 131330Z 19010KT 23/16 A2996 RMK A01 T02340159  RH  066%=      5-min Rain = 0
KSP1 131335Z 19011KT 24/16 A2996 RMK A01 T02390160  RH  064%=      5-min Rain = 0
KSP1 131340Z 19010G15KT 24/16 A2996 RMK A01 T02410162  RH  064%=      5-min Rain = 0
KSP1 131345Z 19011KT 25/16 A2996 RMK A01 T02450162  RH  063%=      5-min Rain = 0
KSP1 131350Z 20011G17KT 24/16 A2996 RMK A01 T02440163  RH  064%=      5-min Rain = 0
KSP1 131355Z 20011G16KT 24/16 A2996 RMK A01 T02430164  RH  064%=      5-min Rain = 0
KSP1 131400Z 20010G16KT 25/17 A2996 RMK A01 T02460165  RH  064%=      5-min Rain = 0
KSP1 131405Z 19011KT 25/17 A2996 RMK A01 T02480165  RH  063%=      5-min Rain = 0
KSP1 131410Z 19012KT 25/17 A2996 RMK A01 T02490165  RH  062%=      5-min Rain = 0
KSP1 131415Z 20010KT 25/17 A2997 RMK A01 T02500165  RH  062%=      5-min Rain = 0
KSP1 131420Z 20012G19KT 25/17 A2997 RMK A01 T02540166  RH  061%=      5-min Rain = 0
KSP1 131425Z 19012G17KT 26/17 A2997 RMK A01 T02550167  RH  061%=      5-min Rain = 0
KSP1 131430Z 21013KT 26/17 A2997 RMK A01 T02560168  RH  061%=      5-min Rain = 0
KSP1 131435Z 20012KT 26/17 A2997 RMK A01 T02590169  RH  061%=      5-min Rain = 0
KSP1 131440Z 21012KT 26/17 A2997 RMK A01 T02610168  RH  059%=      5-min Rain = 0
KSP1 131445Z 20013KT 26/17 A2997 RMK A01 T02620169  RH  059%=      5-min Rain = 0
KSP1 131450Z 21012G17KT 27/17 A2997 RMK A01 T02650169  RH  058%=      5-min Rain = 0
KSP1 131455Z 21012G18KT 27/17 A2997 RMK A01 T02650169  RH  058%=      5-min Rain = 0
KSP1 131500Z 20013G18KT 27/17 A2997 RMK A01 T02680170  RH  057%=      5-min Rain = 0
KSP1 131505Z 20012G18KT 27/17 A2997 RMK A01 T02740169  RH  056%=      5-min Rain = 0
KSP1 131510Z 20014KT 28/17 A2997 RMK A01 T02750169  RH  055%=      5-min Rain = 0
KSP1 131515Z 20012KT 27/17 A2997 RMK A01 T02730169  RH  056%=      5-min Rain = 0
KSP1 131520Z 22012G17KT 27/17 A2997 RMK A01 T02740169  RH  056%=      5-min Rain = 0
KSP1 131525Z 21013G20KT 27/17 A2997 RMK A01 T02740169  RH  056%=      5-min Rain = 0
KSP1 131530Z 20012KT 28/17 A2997 RMK A01 T02800169  RH  053%=      5-min Rain = 0
KSP1 131535Z 22011G17KT 28/17 A2997 RMK A01 T02830168  RH  052%=      5-min Rain = 0
KSP1 131540Z 20012G17KT 28/17 A2997 RMK A01 T02790167  RH  053%=      5-min Rain = 0
KSP1 131545Z 21011G16KT 28/17 A2996 RMK A01 T02770168  RH  054%=      5-min Rain = 0
KSP1 131550Z 22013KT 28/17 A2996 RMK A01 T02790169  RH  054%=      5-min Rain = 0
KSP1 131555Z 22011G16KT 28/17 A2997 RMK A01 T02800168  RH  053%=      5-min Rain = 0
KSP1 131600Z 23009G15KT 28/17 A2997 RMK A01 T02810167  RH  052%=      5-min Rain = 0
KSP1 131605Z 21012G17KT 28/17 A2997 RMK A01 T02830167  RH  052%=      5-min Rain = 0
KSP1 131610Z 21010KT 28/17 A2997 RMK A01 T02830167  RH  052%=      5-min Rain = 0
KSP1 131615Z 21009KT 29/17 A2996 RMK A01 T02880167  RH  051%=      5-min Rain = 0
KSP1 131620Z 20010KT 29/17 A2996 RMK A01 T02900168  RH  050%=      5-min Rain = 0
KSP1 131625Z 22010G15KT 29/17 A2996 RMK A01 T02910166  RH  049%=      5-min Rain = 0
KSP1 131630Z 22011G16KT 29/16 A2996 RMK A01 T02920163  RH  048%=      5-min Rain = 0
KSP1 131635Z 21009KT 29/16 A2996 RMK A01 T02920163  RH  048%=      5-min Rain = 0
KSP1 131640Z 20008G13KT 30/17 A2996 RMK A01 T02950165  RH  048%=      5-min Rain = 0
KSP1 131645Z 21010G15KT 30/16 A2996 RMK A01 T02970163  RH  047%=      5-min Rain = 0
KSP1 131650Z 23009G16KT 30/16 A2996 RMK A01 T02960162  RH  046%=      5-min Rain = 0
KSP1 131655Z 22011KT 30/16 A2996 RMK A01 T02970159  RH  045%=      5-min Rain = 0
KSP1 131700Z 22010G15KT 30/16 A2996 RMK A01 T02970158  RH  045%=      5-min Rain = 0
KSP1 131705Z 21011G17KT 30/16 A2996 RMK A01 T03000157  RH  044%=      5-min Rain = 0
KSP1 131710Z 22010KT 30/16 A2996 RMK A01 T03030157  RH  043%=      5-min Rain = 0
KSP1 131715Z 22010G15KT 30/16 A2996 RMK A01 T03030157  RH  043%=      5-min Rain = 0
KSP1 131720Z 22007KT 30/16 A2996 RMK A01 T02970156  RH  044%=      5-min Rain = 0
KSP1 131725Z 23009G15KT 30/16 A2996 RMK A01 T02980156  RH  044%=      5-min Rain = 0
KSP1 131730Z 23008G13KT 30/15 A2995 RMK A01 T03040154  RH  042%=      5-min Rain = 0
KSP1 131735Z 22008G13KT 31/15 A2995 RMK A01 T03060154  RH  042%=      5-min Rain = 0
KSP1 131740Z 20007G13KT 31/16 A2995 RMK A01 T03060155  RH  042%=      5-min Rain = 0
KSP1 131745Z 21009G15KT 31/16 A2995 RMK A01 T03110155  RH  041%=      5-min Rain = 0
KSP1 131750Z 22009G15KT 31/15 A2995 RMK A01 T03140151  RH  039%=      5-min Rain = 0
KSP1 131755Z 22009KT 32/15 A2994 RMK A01 T03160147  RH  038%=      5-min Rain = 0
KSP1 131800Z 23006KT 31/15 A2994 RMK A01 T03120148  RH  039%=      5-min Rain = 0
KSP1 131805Z 22007G13KT 32/15 A2994 RMK A01 T03160147  RH  038%=      5-min Rain = 0
KSP1 131810Z 23008G14KT 32/15 A2994 RMK A01 T03150148  RH  038%=      5-min Rain = 0
KSP1 131815Z 23006G13KT 32/15 A2994 RMK A01 T03150149  RH  038%=      5-min Rain = 0
KSP1 131820Z 19003KT 32/15 A2993 RMK A01 T03180147  RH  037%=      5-min Rain = 0
KSP1 131825Z 19008G15KT 32/15 A2993 RMK A01 T03210146  RH  036%=      5-min Rain = 0
KSP1 131830Z 18008G13KT 32/14 A2993 RMK A01 T03230143  RH  035%=      5-min Rain = 0
KSP1 131835Z 22009G15KT 32/15 A2992 RMK A01 T03230145  RH  036%=      5-min Rain = 0
KSP1 131840Z 20005KT 32/14 A2992 RMK A01 T03220143  RH  035%=      5-min Rain = 0
KSP1 131845Z 18008G13KT 33/14 A2992 RMK A01 T03260138  RH  033%=      5-min Rain = 0
KSP1 131850Z 17011G16KT 33/14 A2992 RMK A01 T03300140  RH  033%=      5-min Rain = 0
KSP1 131855Z 16007G12KT 33/14 A2991 RMK A01 T03300141  RH  033%=      5-min Rain = 0
KSP1 131900Z 19006G13KT 33/14 A2991 RMK A01 T03300142  RH  033%=      5-min Rain = 0
KSP1 131905Z 18011G20KT 33/14 A2991 RMK A01 T03340140  RH  032%=      5-min Rain = 0
KSP1 131910Z 17009G14KT 33/14 A2991 RMK A01 T03320137  RH  032%=      5-min Rain = 0
KSP1 131915Z 18009G15KT 33/14 A2991 RMK A01 T03320135  RH  032%=      5-min Rain = 0
KSP1 131920Z 15009G18KT 33/14 A299 RMK A01 T03320138  RH  032%=      5-min Rain = 0
KSP1 131925Z 14008KT 33/14 A299 RMK A01 T03320138  RH  032%=      5-min Rain = 0
KSP1 131930Z 16013G19KT 33/13 A299 RMK A01 T03340132  RH  031%=      5-min Rain = 0
KSP1 131935Z 17009G15KT 33/13 A299 RMK A01 T03300129  RH  031%=      5-min Rain = 0
KSP1 131940Z 16008G13KT 33/13 A299 RMK A01 T03300129  RH  031%=      5-min Rain = 0
KSP1 131945Z 13007G13KT 33/13 A299 RMK A01 T03330132  RH  031%=      5-min Rain = 0
KSP1 131950Z 16008G13KT 33/13 A2989 RMK A01 T03330134  RH  031%=      5-min Rain = 0
KSP1 131955Z 21011G17KT 34/14 A2989 RMK A01 T03390135  RH  031%=      5-min Rain = 0
KSP1 132000Z 21009G21KT 34/14 A2989 RMK A01 T03380136  RH  031%=      5-min Rain = 0
KSP1 132005Z 17010G15KT 34/13 A2989 RMK A01 T03390132  RH  030%=      5-min Rain = 0
KSP1 132010Z 17009KT 34/14 A2988 RMK A01 T03410136  RH  030%=      5-min Rain = 0
KSP1 132015Z 16008G14KT 34/14 A2988 RMK A01 T03400136  RH  031%=      5-min Rain = 0
KSP1 132020Z 17009KT 34/13 A2988 RMK A01 T03370133  RH  030%=      5-min Rain = 0
KSP1 132025Z 18012G17KT 34/13 A2988 RMK A01 T03380130  RH  030%=      5-min Rain = 0
KSP1 132030Z 17010G16KT 34/13 A2988 RMK A01 T03400127  RH  029%=      5-min Rain = 0
KSP1 132035Z 18008G13KT 34/13 A2988 RMK A01 T03400129  RH  029%=      5-min Rain = 0
KSP1 132040Z 19012G18KT 34/13 A2987 RMK A01 T03440125  RH  028%=      5-min Rain = 0
KSP1 132045Z 18012G18KT 35/13 A2987 RMK A01 T03470131  RH  028%=      5-min Rain = 0
KSP1 132050Z 19009G14KT 34/13 A2987 RMK A01 T03440132  RH  029%=      5-min Rain = 0
KSP1 132055Z 19014G20KT 34/13 A2987 RMK A01 T03430132  RH  029%=      5-min Rain = 0
KSP1 132100Z 19011KT 34/13 A2987 RMK A01 T03400132  RH  030%=      5-min Rain = 0
KSP1 132105Z 20013G19KT 34/13 A2986 RMK A01 T03420129  RH  029%=      5-min Rain = 0
KSP1 132110Z 18013KT 34/13 A2986 RMK A01 T03440131  RH  029%=      5-min Rain = 0
KSP1 132115Z 18012G17KT 34/13 A2986 RMK A01 T03420129  RH  029%=      5-min Rain = 0
KSP1 132120Z 18012G17KT 34/13 A2985 RMK A01 T03440127  RH  028%=      5-min Rain = 0
KSP1 132125Z 17011G17KT 34/12 A2985 RMK A01 T03430123  RH  027%=      5-min Rain = 0
KSP1 132130Z 18014G21KT 35/12 A2985 RMK A01 T03450120  RH  027%=      5-min Rain = 0
KSP1 132135Z 19012G17KT 35/12 A2985 RMK A01 T03470120  RH  026%=      5-min Rain = 0
KSP1 132140Z 19013G19KT 35/12 A2985 RMK A01 T03500117  RH  025%=      5-min Rain = 0
KSP1 132145Z 19013G21KT 35/12 A2984 RMK A01 T03470122  RH  027%=      5-min Rain = 0
KSP1 132150Z 18014G20KT 35/12 A2985 RMK A01 T03450123  RH  027%=      5-min Rain = 0
KSP1 132155Z 17011G16KT 34/12 A2985 RMK A01 T03430121  RH  027%=      5-min Rain = 0
KSP1 132200Z 18011G16KT 34/12 A2984 RMK A01 T03400123  RH  028%=      5-min Rain = 0
KSP1 132205Z 19013KT 34/12 A2984 RMK A01 T03430123  RH  027%=      5-min Rain = 0
KSP1 132210Z 19014KT 34/12 A2984 RMK A01 T03420123  RH  027%=      5-min Rain = 0
KSP1 132215Z 17014G19KT 34/12 A2983 RMK A01 T03440118  RH  026%=      5-min Rain = 0
KSP1 132220Z 17013G20KT 34/12 A2983 RMK A01 T03380117  RH  027%=      5-min Rain = 0
KSP1 132225Z 18012G18KT 34/12 A2983 RMK A01 T03410118  RH  027%=      5-min Rain = 0
KSP1 132230Z 19012KT 34/12 A2983 RMK A01 T03430121  RH  027%=      5-min Rain = 0
KSP1 132235Z 18009KT 34/12 A2983 RMK A01 T03370123  RH  028%=      5-min Rain = 0
KSP1 132240Z 18009G17KT 34/12 A2982 RMK A01 T03360123  RH  029%=      5-min Rain = 0
KSP1 132245Z 18010G15KT 34/12 A2982 RMK A01 T03400124  RH  028%=      5-min Rain = 0
KSP1 132250Z 16011G18KT 34/12 A2982 RMK A01 T03440122  RH  027%=      5-min Rain = 0
KSP1 132255Z 17013G20KT 34/13 A2981 RMK A01 T03440125  RH  028%=      5-min Rain = 0
KSP1 132300Z 18011G19KT 34/13 A2981 RMK A01 T03430126  RH  028%=      5-min Rain = 0
KSP1 132305Z 17014G20KT 34/13 A2981 RMK A01 T03440126  RH  028%=      5-min Rain = 0
KSP1 132310Z 16013G18KT 34/13 A2981 RMK A01 T03410125  RH  028%=      5-min Rain = 0
KSP1 132315Z 18013G20KT 34/13 A298 RMK A01 T03400125  RH  028%=      5-min Rain = 0
KSP1 132320Z 16012G17KT 34/12 A298 RMK A01 T03390124  RH  028%=      5-min Rain = 0
KSP1 132325Z 17012G17KT 34/12 A298 RMK A01 T03370124  RH  029%=      5-min Rain = 0
KSP1 132330Z 17013G19KT 34/12 A298 RMK A01 T03400124  RH  028%=      5-min Rain = 0
KSP1 132335Z 16015G21KT 34/12 A298 RMK A01 T03380124  RH  029%=      5-min Rain = 0
KSP1 132340Z 18013G22KT 34/12 A298 RMK A01 T03380124  RH  028%=      5-min Rain = 0
KSP1 132345Z 17016G22KT 34/13 A298 RMK A01 T03380125  RH  029%=      5-min Rain = 0
KSP1 132350Z 17015G23KT 34/13 A298 RMK A01 T03370125  RH  029%=      5-min Rain = 0
KSP1 132355Z 18016G21KT 34/12 A298 RMK A01 T03370124  RH  029%=      5-min Rain = 0
KSP1 140000Z 18016G22KT 34/12 A298 RMK A01 T03350123  RH  029%=      5-min Rain = 0
KSP1 140005Z 17016G21KT 33/12 A298 RMK A01 T03330122  RH  029%=      5-min Rain = 0
KSP1 140010Z 18017G25KT 33/12 A298 RMK A01 T03320123  RH  029%=      5-min Rain = 0
KSP1 140015Z 18015G23KT 33/12 A298 RMK A01 T03270124  RH  030%=      5-min Rain = 0
KSP1 140020Z 18015G22KT 33/13 A298 RMK A01 T03260125  RH  031%=      5-min Rain = 0
KSP1 140025Z 17015G22KT 33/13 A298 RMK A01 T03250125  RH  031%=      5-min Rain = 0
KSP1 140030Z 17015G20KT 33/13 A298 RMK A01 T03260125  RH  031%=      5-min Rain = 0
KSP1 140035Z 17016G24KT 32/13 A298 RMK A01 T03240130  RH  032%=      5-min Rain = 0
KSP1 140040Z 17016G23KT 32/14 A298 RMK A01 T03180139  RH  035%=      5-min Rain = 0
KSP1 140045Z 16014G21KT 31/14 A298 RMK A01 T03130143  RH  037%=      5-min Rain = 0
KSP1 140050Z 16015G23KT 31/14 A298 RMK A01 T03140141  RH  036%=      5-min Rain = 0
KSP1 140055Z 16013G20KT 31/14 A298 RMK A01 T03140140  RH  036%=      5-min Rain = 0
KSP1 140100Z 18014G21KT 32/13 A298 RMK A01 T03150134  RH  035%=      5-min Rain = 0
KSP1 140105Z 18012KT 32/13 A298 RMK A01 T03170129  RH  033%=      5-min Rain = 0
KSP1 140110Z 17012G20KT 31/14 A298 RMK A01 T03140137  RH  035%=      5-min Rain = 0
KSP1 140115Z 16013G19KT 31/14 A298 RMK A01 T03080142  RH  038%=      5-min Rain = 0
KSP1 140120Z 17012G17KT 31/14 A298 RMK A01 T03050143  RH  039%=      5-min Rain = 0
KSP1 140125Z 18015G23KT 31/14 A298 RMK A01 T03050141  RH  039%=      5-min Rain = 0
KSP1 140130Z 18017G24KT 31/14 A298 RMK A01 T03050139  RH  038%=      5-min Rain = 0
KSP1 140135Z 18015G23KT 30/14 A298 RMK A01 T03030138  RH  038%=      5-min Rain = 0
KSP1 140140Z 18017G23KT 30/14 A298 RMK A01 T03010138  RH  039%=      5-min Rain = 0
KSP1 140145Z 19015G22KT 30/14 A298 RMK A01 T03000138  RH  039%=      5-min Rain = 0
KSP1 140150Z 18012G19KT 30/14 A298 RMK A01 T02980138  RH  039%=      5-min Rain = 0
KSP1 140155Z 18011KT 30/14 A2981 RMK A01 T02960138  RH  040%=      5-min Rain = 0
KSP1 140200Z 18012G17KT 30/14 A2981 RMK A01 T02950137  RH  039%=      5-min Rain = 0
KSP1 140205Z 18012G18KT 29/14 A2981 RMK A01 T02940137  RH  040%=      5-min Rain = 0
KSP1 140210Z 18014G20KT 29/14 A2982 RMK A01 T02940139  RH  040%=      5-min Rain = 0
KSP1 140215Z 18012G17KT 29/14 A2982 RMK A01 T02930140  RH  041%=      5-min Rain = 0
KSP1 140220Z 17011G17KT 29/14 A2983 RMK A01 T02910142  RH  042%=      5-min Rain = 0
KSP1 140225Z 17013G22KT 29/15 A2983 RMK A01 T02900145  RH  043%=      5-min Rain = 0
KSP1 140230Z 18014G22KT 29/15 A2984 RMK A01 T02900146  RH  043%=      5-min Rain = 0
KSP1 140235Z 17013G20KT 29/15 A2984 RMK A01 T02890147  RH  044%=      5-min Rain = 0
KSP1 140240Z 17013G18KT 29/15 A2984 RMK A01 T02870147  RH  044%=      5-min Rain = 0
KSP1 140245Z 17012G18KT 29/15 A2985 RMK A01 T02860147  RH  045%=      5-min Rain = 0
KSP1 140250Z 17013G20KT 29/15 A2985 RMK A01 T02850147  RH  045%=      5-min Rain = 0
KSP1 140255Z 16012G18KT 28/15 A2985 RMK A01 T02840147  RH  045%=      5-min Rain = 0
KSP1 140300Z 16011G16KT 28/15 A2986 RMK A01 T02830147  RH  045%=      5-min Rain = 0
KSP1 140305Z 16009KT 28/15 A2987 RMK A01 T02820147  RH  046%=      5-min Rain = 0
KSP1 140310Z 16009G15KT 28/15 A2987 RMK A01 T02800147  RH  046%=      5-min Rain = 0
KSP1 140315Z 15008KT 28/15 A2988 RMK A01 T02790147  RH  046%=      5-min Rain = 0
KSP1 140320Z 15008KT 28/15 A2988 RMK A01 T02780146  RH  047%=      5-min Rain = 0
KSP1 140325Z 14009KT 28/15 A2989 RMK A01 T02780146  RH  046%=      5-min Rain = 0
KSP1 140330Z 14009KT 28/15 A2989 RMK A01 T02770145  RH  046%=      5-min Rain = 0
KSP1 140335Z 14008KT 28/15 A299 RMK A01 T02750145  RH  047%=      5-min Rain = 0
KSP1 140340Z 14007KT 27/15 A299 RMK A01 T02740145  RH  047%=      5-min Rain = 0
KSP1 140345Z 13006KT 27/15 A299 RMK A01 T02730146  RH  048%=      5-min Rain = 0
KSP1 140350Z 12006KT 27/15 A2991 RMK A01 T02720147  RH  048%=      5-min Rain = 0
KSP1 140355Z 12007KT 27/15 A2991 RMK A01 T02700148  RH  049%=      5-min Rain = 0
KSP1 140400Z 14005KT 27/15 A2991 RMK A01 T02680148  RH  050%=      5-min Rain = 0
KSP1 140405Z 15006KT 27/15 A2991 RMK A01 T02670148  RH  050%=      5-min Rain = 0
KSP1 140410Z 14006KT 27/15 A2991 RMK A01 T02660148  RH  051%=      5-min Rain = 0
KSP1 140415Z 15006KT 26/15 A2991 RMK A01 T02640148  RH  051%=      5-min Rain = 0
KSP1 140420Z 14006KT 26/15 A2991 RMK A01 T02630148  RH  051%=      5-min Rain = 0
KSP1 140425Z 15005KT 26/15 A2992 RMK A01 T02620149  RH  052%=      5-min Rain = 0
KSP1 140430Z 14004KT 26/15 A2992 RMK A01 T02600149  RH  053%=      5-min Rain = 0
KSP1 140435Z 14004KT 26/15 A2992 RMK A01 T02580149  RH  053%=      5-min Rain = 0
KSP1 140440Z 14004KT 26/15 A2992 RMK A01 T02580149  RH  053%=      5-min Rain = 0
KSP1 140445Z 14003KT 26/15 A2992 RMK A01 T02570149  RH  054%=      5-min Rain = 0
KSP1 140450Z 13003KT 26/15 A2992 RMK A01 T02560149  RH  054%=      5-min Rain = 0
KSP1 140455Z 13003KT 26/15 A2992 RMK A01 T02560150  RH  054%=      5-min Rain = 0

Page generated in 0.0285 seconds.